createdAt,value
2023-01-17T00:01:33.798Z,13.53
2023-01-17T00:04:18.612Z,12.20
2023-01-17T00:07:03.466Z,10.63
2023-01-17T00:09:48.286Z,11.13
2023-01-17T00:12:14.672Z,9.90
2023-01-17T00:14:41.036Z,10.60
2023-01-17T00:17:07.419Z,9.60
2023-01-17T00:19:52.360Z,9.30
2023-01-17T00:22:48.197Z,8.90
2023-01-17T00:25:39.015Z,7.57
2023-01-17T00:28:05.899Z,8.23
2023-01-17T00:30:32.587Z,9.23
2023-01-17T00:33:03.771Z,10.43
2023-01-17T00:35:31.840Z,8.50
2023-01-17T00:38:22.279Z,10.17
2023-01-17T00:40:49.831Z,9.13
2023-01-17T00:43:39.056Z,9.93
2023-01-17T00:46:24.764Z,9.57
2023-01-17T00:49:10.004Z,8.50
2023-01-17T00:51:55.693Z,8.13
2023-01-17T00:54:40.405Z,7.33
2023-01-17T00:57:25.753Z,7.00
2023-01-17T01:00:11.108Z,6.83
2023-01-17T01:02:56.494Z,7.43
2023-01-17T01:05:41.691Z,8.50
2023-01-17T01:08:42.235Z,10.13
2023-01-17T01:11:30.027Z,9.57
2023-01-17T01:14:15.407Z,6.30
2023-01-17T01:17:00.290Z,5.33
2023-01-17T01:19:45.157Z,3.97
2023-01-17T01:22:29.718Z,3.90
2023-01-17T01:25:14.440Z,4.03
2023-01-17T01:27:59.223Z,5.43
2023-01-17T01:30:43.874Z,4.40
2023-01-17T01:33:19.230Z,4.57
2023-01-17T01:35:55.411Z,3.90
2023-01-17T01:38:24.050Z,4.40
2023-01-17T01:40:53.612Z,3.77
2023-01-17T01:43:39.319Z,4.70
2023-01-17T01:46:06.789Z,3.70
2023-01-17T01:48:49.701Z,3.77
2023-01-17T01:51:21.867Z,3.03
2023-01-17T01:53:54.063Z,3.57
2023-01-17T01:56:23.185Z,3.33
2023-01-17T01:58:52.107Z,2.90
2023-01-17T02:01:19.016Z,1.77
2023-01-17T02:03:46.396Z,2.17
2023-01-17T02:06:36.295Z,1.57
2023-01-17T02:09:12.274Z,1.90
2023-01-17T02:11:40.592Z,1.70
2023-01-17T02:14:08.686Z,3.23
2023-01-17T02:16:44.323Z,2.40
2023-01-17T02:20:00.788Z,2.00
2023-01-17T02:22:46.414Z,2.37
2023-01-17T02:25:48.436Z,2.90
2023-01-17T02:28:47.131Z,3.23
2023-01-17T02:31:21.079Z,3.37
2023-01-17T02:33:57.449Z,2.93
2023-01-17T02:36:29.034Z,3.83
2023-01-17T02:39:13.462Z,1.97
2023-01-17T02:41:46.740Z,1.93
2023-01-17T02:44:18.450Z,1.60
2023-01-17T02:47:21.250Z,1.30
2023-01-17T02:49:47.668Z,1.27
2023-01-17T02:52:31.558Z,1.30
2023-01-17T02:55:16.007Z,1.60
2023-01-17T02:58:08.616Z,2.80
2023-01-17T03:01:03.844Z,1.50
2023-01-17T03:04:05.632Z,1.60
2023-01-17T03:06:40.052Z,1.63
2023-01-17T03:09:07.691Z,1.60
2023-01-17T03:11:34.366Z,1.93
2023-01-17T03:14:00.727Z,1.93
2023-01-17T03:16:31.241Z,2.40
2023-01-17T03:18:57.628Z,2.53
2023-01-17T03:21:24.782Z,3.20
2023-01-17T03:23:51.611Z,3.80
2023-01-17T03:26:18.045Z,3.03
2023-01-17T03:28:44.637Z,2.83
2023-01-17T03:31:15.035Z,3.73
2023-01-17T03:33:41.549Z,3.73
2023-01-17T03:36:08.440Z,3.57
2023-01-17T03:38:34.798Z,4.13
2023-01-17T03:41:01.223Z,3.87
2023-01-17T03:43:27.561Z,4.70
2023-01-17T03:46:02.185Z,3.97
2023-01-17T03:48:28.643Z,4.13
2023-01-17T03:50:55.003Z,4.27
2023-01-17T03:53:21.365Z,4.77
2023-01-17T03:55:49.432Z,3.97
2023-01-17T03:58:16.245Z,3.57
2023-01-17T04:00:43.047Z,5.23
2023-01-17T04:03:09.630Z,5.27
2023-01-17T04:05:36.027Z,6.80
2023-01-17T04:08:03.041Z,6.23
2023-01-17T04:10:29.396Z,7.60
2023-01-17T04:12:55.751Z,7.20
2023-01-17T04:15:22.128Z,18.53
2023-01-17T04:17:48.722Z,8.67
2023-01-17T04:20:36.662Z,8.27
2023-01-17T04:23:03.777Z,14.40
2023-01-17T04:25:30.863Z,22.70
2023-01-17T04:27:58.524Z,12.53
2023-01-17T04:30:25.388Z,14.23
2023-01-17T04:32:52.032Z,13.70
2023-01-17T04:35:18.421Z,14.53
2023-01-17T04:37:44.876Z,10.47
2023-01-17T04:40:12.011Z,9.73
2023-01-17T04:42:38.539Z,8.40
2023-01-17T04:45:06.006Z,7.70
2023-01-17T04:47:34.145Z,9.03
2023-01-17T04:50:00.530Z,9.57
2023-01-17T04:52:26.934Z,7.67
2023-01-17T04:54:53.352Z,7.67
2023-01-17T04:57:20.059Z,13.40
2023-01-17T04:59:46.847Z,8.17
2023-01-17T05:02:14.100Z,8.93
2023-01-17T05:04:40.474Z,9.47
2023-01-17T05:07:07.061Z,10.20
2023-01-17T05:09:33.528Z,11.43
2023-01-17T05:11:59.959Z,9.93
2023-01-17T05:14:26.423Z,10.73
2023-01-17T05:16:56.660Z,10.13
2023-01-17T05:19:23.865Z,11.97
2023-01-17T05:21:50.312Z,12.50
2023-01-17T05:24:17.468Z,9.23
2023-01-17T05:26:43.998Z,9.13
2023-01-17T05:29:10.897Z,9.30
2023-01-17T05:31:37.737Z,9.37
2023-01-17T05:34:04.377Z,8.23
2023-01-17T05:36:30.862Z,10.60
2023-01-17T05:38:57.317Z,13.13
2023-01-17T05:41:23.730Z,8.00
2023-01-17T05:43:50.114Z,7.07
2023-01-17T05:46:17.970Z,10.60
2023-01-17T05:48:44.517Z,8.47
2023-01-17T05:51:10.897Z,7.47
2023-01-17T05:53:37.432Z,6.53
2023-01-17T05:56:03.893Z,7.63
2023-01-17T05:58:30.259Z,7.00
2023-01-17T06:00:56.722Z,8.03
2023-01-17T06:03:23.101Z,5.90
2023-01-17T06:05:50.062Z,11.93
2023-01-17T06:08:16.745Z,9.33
2023-01-17T06:10:43.528Z,14.77
2023-01-17T06:13:12.668Z,11.47
2023-01-17T06:15:39.407Z,9.63
2023-01-17T06:18:11.451Z,16.20
2023-01-17T06:20:38.568Z,8.67
2023-01-17T06:23:07.416Z,9.47
2023-01-17T06:25:47.866Z,10.57
2023-01-17T06:28:16.883Z,16.00
2023-01-17T06:30:43.937Z,13.43
2023-01-17T06:33:11.306Z,12.97
2023-01-17T06:35:40.106Z,17.43
2023-01-17T06:38:06.984Z,27.13
2023-01-17T06:40:33.608Z,18.93
2023-01-17T06:43:04.593Z,20.77
2023-01-17T06:45:33.474Z,17.90
2023-01-17T06:48:01.232Z,26.07
2023-01-17T06:50:27.796Z,22.43
2023-01-17T06:52:59.978Z,21.50
2023-01-17T06:55:30.724Z,22.67
2023-01-17T06:57:59.296Z,17.80
2023-01-17T07:00:27.838Z,21.50
2023-01-17T07:02:54.547Z,17.17
2023-01-17T07:05:21.490Z,14.10
2023-01-17T07:07:48.282Z,21.30
2023-01-17T07:10:15.954Z,17.10
2023-01-17T07:12:42.380Z,17.03
2023-01-17T07:15:09.521Z,15.73
2023-01-17T07:17:35.896Z,22.80
2023-01-17T07:20:02.437Z,20.90
2023-01-17T07:22:28.864Z,21.63
2023-01-17T07:24:58.380Z,21.37
2023-01-17T07:27:27.564Z,25.07
2023-01-17T07:29:54.380Z,16.67
2023-01-17T07:32:20.987Z,20.60
2023-01-17T07:34:47.454Z,16.17
2023-01-17T07:37:15.351Z,15.20
2023-01-17T07:39:41.971Z,30.07
2023-01-17T07:42:09.052Z,42.60
2023-01-17T07:44:35.436Z,30.90
2023-01-17T07:47:01.857Z,38.03
2023-01-17T07:49:28.209Z,41.10
2023-01-17T07:51:55.437Z,48.57
2023-01-17T07:54:21.984Z,34.07
2023-01-17T07:56:48.935Z,39.70
2023-01-17T07:59:15.445Z,40.03
2023-01-17T08:01:41.929Z,33.87
2023-01-17T08:04:09.197Z,38.67
2023-01-17T08:06:39.180Z,23.57
2023-01-17T08:09:05.592Z,38.47
2023-01-17T08:11:31.978Z,28.60
2023-01-17T08:13:59.420Z,34.13
2023-01-17T08:16:28.546Z,25.17
2023-01-17T08:18:56.216Z,33.10
2023-01-17T08:21:22.797Z,35.13
2023-01-17T08:23:50.560Z,29.40
2023-01-17T08:26:22.036Z,30.13
2023-01-17T08:28:56.762Z,34.70
2023-01-17T08:31:24.420Z,35.17
2023-01-17T08:33:50.808Z,23.60
2023-01-17T08:36:17.550Z,51.10
2023-01-17T08:38:44.037Z,38.50
2023-01-17T08:41:10.465Z,36.10
2023-01-17T08:43:36.808Z,31.83
2023-01-17T08:46:03.180Z,35.63
2023-01-17T08:48:29.590Z,31.97
2023-01-17T08:51:00.474Z,39.40
2023-01-17T08:53:26.867Z,28.33
2023-01-17T08:56:00.587Z,36.33
2023-01-17T08:58:30.328Z,38.70
2023-01-17T09:01:02.773Z,43.83
2023-01-17T09:03:30.535Z,45.73
2023-01-17T09:06:04.086Z,44.10
2023-01-17T09:08:30.737Z,54.23
2023-01-17T09:10:57.410Z,48.00
2023-01-17T09:13:23.833Z,40.47
2023-01-17T09:15:50.262Z,36.23
2023-01-17T09:18:16.600Z,39.00
2023-01-17T09:20:42.940Z,34.53
2023-01-17T09:23:09.268Z,32.03
2023-01-17T09:25:35.597Z,35.40
2023-01-17T09:28:01.990Z,30.43
2023-01-17T09:30:28.406Z,38.87
2023-01-17T09:32:55.250Z,30.47
2023-01-17T09:35:21.602Z,41.33
2023-01-17T09:37:51.568Z,28.63
2023-01-17T09:40:21.461Z,43.07
2023-01-17T09:42:51.594Z,39.70
2023-01-17T09:45:19.577Z,38.80
2023-01-17T09:47:52.438Z,33.10
2023-01-17T09:50:25.287Z,37.40
2023-01-17T09:53:00.565Z,46.83
2023-01-17T09:55:34.000Z,53.40
2023-01-17T09:58:06.178Z,54.40
2023-01-17T10:00:46.725Z,39.27
2023-01-17T10:03:42.558Z,50.67
2023-01-17T10:06:30.743Z,43.67
2023-01-17T10:09:40.603Z,49.90
2023-01-17T10:12:24.696Z,46.87
2023-01-17T10:15:19.940Z,46.47
2023-01-17T10:17:52.258Z,35.90
2023-01-17T10:20:53.398Z,50.60
2023-01-17T10:23:31.859Z,41.60
2023-01-17T10:26:05.408Z,44.77
2023-01-17T10:28:39.098Z,41.83
2023-01-17T10:31:07.924Z,45.97
2023-01-17T10:33:43.083Z,50.73
2023-01-17T10:36:15.253Z,42.87
2023-01-17T10:38:47.045Z,40.77
2023-01-17T10:41:23.805Z,43.27
2023-01-17T10:43:59.440Z,46.97
2023-01-17T10:46:32.426Z,48.90
2023-01-17T10:49:01.064Z,51.13
2023-01-17T10:51:49.625Z,60.10
2023-01-17T10:54:29.682Z,37.70
2023-01-17T10:56:56.122Z,39.67
2023-01-17T10:59:34.800Z,37.63
2023-01-17T11:02:07.314Z,33.10
2023-01-17T11:04:36.601Z,31.43
2023-01-17T11:07:14.622Z,41.23
2023-01-17T11:09:47.294Z,33.53
2023-01-17T11:12:29.531Z,35.50
2023-01-17T11:15:25.819Z,42.30
2023-01-17T11:18:02.278Z,40.30
2023-01-17T11:20:35.583Z,31.63
2023-01-17T11:23:04.940Z,41.70
2023-01-17T11:25:35.459Z,34.03
2023-01-17T11:28:21.718Z,38.90
2023-01-17T11:31:03.524Z,48.20
2023-01-17T11:33:44.880Z,33.00
2023-01-17T11:36:28.940Z,32.83
2023-01-17T11:38:58.071Z,28.70
2023-01-17T11:41:27.858Z,35.47
2023-01-17T11:43:56.316Z,26.73
2023-01-17T11:46:23.837Z,31.07
2023-01-17T11:48:56.478Z,33.37
2023-01-17T11:51:25.286Z,21.73
2023-01-17T11:53:54.047Z,27.57
2023-01-17T11:56:33.129Z,28.67
2023-01-17T11:59:21.303Z,25.57
2023-01-17T12:02:15.592Z,29.17
2023-01-17T12:04:45.204Z,31.23
2023-01-17T12:07:42.579Z,24.97
2023-01-17T12:10:17.774Z,25.40
2023-01-17T12:13:27.438Z,18.70
2023-01-17T12:16:26.334Z,31.93
2023-01-17T12:19:27.806Z,20.57
2023-01-17T12:22:18.373Z,27.10
2023-01-17T12:25:15.214Z,23.57
2023-01-17T12:28:09.960Z,18.43
2023-01-17T12:30:42.232Z,16.50
2023-01-17T12:33:26.585Z,15.07
2023-01-17T12:35:57.510Z,19.67
2023-01-17T12:38:34.742Z,20.70
2023-01-17T12:41:15.981Z,31.00
2023-01-17T12:43:44.286Z,29.30
2023-01-17T12:46:23.862Z,40.20
2023-01-17T12:49:02.763Z,18.30
2023-01-17T12:51:36.706Z,30.37
2023-01-17T12:54:13.039Z,24.23
2023-01-17T12:56:48.677Z,24.07
2023-01-17T12:59:22.162Z,28.47
2023-01-17T13:01:58.539Z,25.93
2023-01-17T13:04:34.445Z,24.93
2023-01-17T13:07:21.853Z,29.97
2023-01-17T13:09:55.259Z,23.67
2023-01-17T13:12:24.798Z,23.83
2023-01-17T13:14:51.132Z,24.00
2023-01-17T13:17:44.846Z,22.90
2023-01-17T13:20:33.357Z,18.97
2023-01-17T13:23:09.795Z,26.77
2023-01-17T13:25:46.365Z,18.53
2023-01-17T13:28:21.514Z,21.10
2023-01-17T13:30:53.476Z,16.80
2023-01-17T13:33:32.806Z,17.13
2023-01-17T13:36:20.373Z,15.20
2023-01-17T13:39:07.586Z,19.87
2023-01-17T13:41:33.871Z,14.13
2023-01-17T13:44:20.511Z,19.83
2023-01-17T13:47:04.161Z,16.60
2023-01-17T13:49:31.512Z,15.13
2023-01-17T13:52:07.425Z,8.93
2023-01-17T13:54:34.263Z,13.67
2023-01-17T13:57:55.112Z,18.63
2023-01-17T14:00:27.247Z,22.87
2023-01-17T14:02:55.538Z,17.40
2023-01-17T14:05:41.972Z,21.57
2023-01-17T14:08:18.789Z,18.23
2023-01-17T14:10:49.654Z,24.97
2023-01-17T14:13:39.370Z,17.33
2023-01-17T14:16:27.555Z,21.67
2023-01-17T14:18:55.340Z,32.27
2023-01-17T14:21:33.475Z,23.10
2023-01-17T14:24:04.927Z,22.67
2023-01-17T14:26:41.730Z,22.80
2023-01-17T14:29:42.438Z,18.60
2023-01-17T14:32:12.060Z,13.03
2023-01-17T14:34:38.424Z,17.23
2023-01-17T14:37:15.952Z,13.87
2023-01-17T14:39:46.969Z,10.73
2023-01-17T14:42:19.217Z,16.60
2023-01-17T14:44:48.334Z,10.03
2023-01-17T14:47:15.921Z,10.90
2023-01-17T14:49:42.542Z,13.13
2023-01-17T14:52:18.139Z,7.90
2023-01-17T14:54:49.471Z,14.57
2023-01-17T14:57:27.064Z,14.00
2023-01-17T15:00:13.687Z,17.60
2023-01-17T15:02:42.515Z,11.07
2023-01-17T15:05:13.783Z,24.43
2023-01-17T15:07:41.151Z,17.20
2023-01-17T15:10:22.684Z,10.00
2023-01-17T15:12:49.852Z,10.20
2023-01-17T15:15:39.564Z,13.57
2023-01-17T15:18:20.402Z,10.97
2023-01-17T15:21:02.359Z,14.27
2023-01-17T15:23:45.604Z,15.97
2023-01-17T15:26:15.726Z,13.80
2023-01-17T15:28:44.642Z,23.53
2023-01-17T15:31:15.465Z,17.90
2023-01-17T15:33:46.435Z,17.43
2023-01-17T15:36:23.156Z,16.60
2023-01-17T15:39:02.212Z,14.97
2023-01-17T15:41:34.690Z,21.47
2023-01-17T15:44:02.222Z,18.27
2023-01-17T15:46:31.973Z,13.73
2023-01-17T15:49:17.510Z,19.93
2023-01-17T15:51:53.270Z,12.77
2023-01-17T15:54:28.742Z,15.00
2023-01-17T15:57:06.047Z,10.70
2023-01-17T15:59:45.316Z,15.17
2023-01-17T16:02:33.729Z,9.23
2023-01-17T16:05:02.987Z,9.27
2023-01-17T16:07:35.312Z,14.07
2023-01-17T16:10:14.712Z,11.97
2023-01-17T16:12:41.343Z,16.40
2023-01-17T16:15:12.942Z,10.60
2023-01-17T16:17:42.810Z,18.10
2023-01-17T16:20:16.509Z,9.30
2023-01-17T16:22:43.791Z,11.13
2023-01-17T16:25:16.505Z,11.33
2023-01-17T16:27:43.206Z,16.30
2023-01-17T16:30:12.082Z,8.97
2023-01-17T16:32:38.438Z,15.53
2023-01-17T16:35:06.830Z,15.03
2023-01-17T16:37:33.178Z,20.63
2023-01-17T16:39:59.621Z,20.93
2023-01-17T16:42:28.474Z,18.63
2023-01-17T16:44:54.936Z,15.57
2023-01-17T16:47:21.857Z,18.43
2023-01-17T16:49:48.215Z,24.77
2023-01-17T16:52:14.556Z,16.63
2023-01-17T16:54:40.926Z,11.07
2023-01-17T16:57:07.253Z,10.70
2023-01-17T16:59:46.110Z,11.03
2023-01-17T17:02:16.498Z,10.70
2023-01-17T17:04:42.863Z,14.40
2023-01-17T17:07:09.307Z,16.63
2023-01-17T17:09:35.635Z,20.30
2023-01-17T17:12:01.998Z,13.07
2023-01-17T17:14:29.192Z,11.63
2023-01-17T17:16:56.281Z,13.73
2023-01-17T17:19:22.982Z,13.67
2023-01-17T17:21:49.699Z,15.27
2023-01-17T17:24:19.759Z,14.40
2023-01-17T17:26:46.092Z,25.80
2023-01-17T17:29:14.526Z,20.20
2023-01-17T17:31:42.405Z,13.27
2023-01-17T17:34:11.566Z,10.83
2023-01-17T17:36:38.651Z,11.20
2023-01-17T17:39:08.938Z,10.07
2023-01-17T17:41:39.112Z,24.20
2023-01-17T17:44:05.595Z,16.00
2023-01-17T17:46:33.598Z,13.43
2023-01-17T17:49:00.653Z,11.07
2023-01-17T17:51:33.329Z,15.57
2023-01-17T17:54:05.832Z,17.73
2023-01-17T17:56:33.195Z,27.97
2023-01-17T17:59:01.293Z,19.43
2023-01-17T18:01:28.022Z,17.13
2023-01-17T18:03:56.875Z,11.90
2023-01-17T18:06:23.975Z,12.30
2023-01-17T18:08:51.862Z,14.27
2023-01-17T18:11:24.489Z,11.47
2023-01-17T18:13:52.675Z,12.53
2023-01-17T18:16:22.218Z,14.23
2023-01-17T18:18:51.059Z,21.20
2023-01-17T18:21:24.833Z,23.00
2023-01-17T18:24:02.699Z,20.63
2023-01-17T18:26:35.316Z,21.90
2023-01-17T18:29:03.401Z,33.87
2023-01-17T18:31:31.696Z,34.13
2023-01-17T18:34:00.324Z,22.73
2023-01-17T18:36:28.974Z,20.37
2023-01-17T18:38:56.388Z,27.53
2023-01-17T18:41:25.793Z,20.80
2023-01-17T18:43:52.634Z,14.60
2023-01-17T18:46:20.436Z,17.87
2023-01-17T18:48:46.844Z,23.80
2023-01-17T18:51:16.329Z,25.20
2023-01-17T18:53:44.734Z,26.07
2023-01-17T18:56:18.451Z,22.90
2023-01-17T18:58:46.323Z,28.47
2023-01-17T19:01:15.293Z,32.23
2023-01-17T19:03:43.914Z,27.93
2023-01-17T19:06:14.531Z,27.50
2023-01-17T19:08:41.885Z,28.33
2023-01-17T19:11:09.569Z,24.53
2023-01-17T19:13:37.723Z,28.33
2023-01-17T19:16:06.976Z,24.73
2023-01-17T19:18:34.090Z,38.13
2023-01-17T19:21:11.504Z,26.47
2023-01-17T19:23:38.478Z,31.60
2023-01-17T19:26:06.501Z,36.33
2023-01-17T19:28:35.597Z,25.20
2023-01-17T19:31:06.483Z,33.77
2023-01-17T19:33:34.483Z,34.90
2023-01-17T19:36:03.454Z,32.33
2023-01-17T19:38:30.672Z,29.03
2023-01-17T19:40:57.062Z,43.80
2023-01-17T19:43:23.718Z,31.43
2023-01-17T19:45:59.897Z,34.63
2023-01-17T19:48:27.105Z,44.97
2023-01-17T19:50:56.889Z,39.87
2023-01-17T19:53:23.800Z,50.67
2023-01-17T19:55:50.170Z,47.00
2023-01-17T19:58:16.531Z,34.03
2023-01-17T20:00:46.680Z,37.77
2023-01-17T20:03:13.566Z,35.17
2023-01-17T20:05:40.015Z,34.90
2023-01-17T20:08:06.389Z,36.27
2023-01-17T20:10:32.708Z,40.23
2023-01-17T20:12:59.044Z,40.23
2023-01-17T20:15:26.404Z,52.10
2023-01-17T20:17:53.139Z,48.30
2023-01-17T20:20:22.823Z,43.10
2023-01-17T20:22:49.428Z,60.50
2023-01-17T20:25:15.915Z,46.57
2023-01-17T20:27:42.704Z,61.93
2023-01-17T20:30:19.807Z,58.67
2023-01-17T20:32:46.667Z,42.20
2023-01-17T20:35:15.926Z,44.67
2023-01-17T20:37:42.294Z,47.93
2023-01-17T20:40:09.472Z,44.80
2023-01-17T20:42:36.357Z,62.10
2023-01-17T20:45:02.729Z,45.07
2023-01-17T20:47:29.565Z,49.40
2023-01-17T20:49:55.909Z,49.90
2023-01-17T20:52:22.227Z,48.13
2023-01-17T20:54:49.549Z,49.67
2023-01-17T20:57:15.878Z,47.80
2023-01-17T20:59:42.240Z,54.73
2023-01-17T21:02:10.545Z,59.23
2023-01-17T21:04:36.954Z,48.00
2023-01-17T21:07:03.370Z,51.40
2023-01-17T21:09:29.734Z,46.23
2023-01-17T21:12:00.898Z,45.37
2023-01-17T21:14:28.589Z,47.67
2023-01-17T21:16:55.152Z,45.67
2023-01-17T21:19:21.595Z,43.40
2023-01-17T21:21:48.700Z,45.17
2023-01-17T21:24:18.417Z,49.23
2023-01-17T21:26:46.297Z,44.17
2023-01-17T21:29:15.693Z,44.80
2023-01-17T21:31:42.573Z,49.00
2023-01-17T21:34:13.532Z,48.23
2023-01-17T21:36:44.477Z,46.50
2023-01-17T21:39:16.312Z,50.77
2023-01-17T21:41:45.800Z,53.47
2023-01-17T21:44:22.860Z,53.47
2023-01-17T21:46:53.472Z,48.53
2023-01-17T21:49:21.690Z,68.70
2023-01-17T21:51:53.831Z,47.83
2023-01-17T21:54:41.240Z,51.27
2023-01-17T21:57:27.865Z,45.57
2023-01-17T21:59:54.256Z,40.83
2023-01-17T22:02:21.095Z,44.30
2023-01-17T22:04:47.493Z,52.03
2023-01-17T22:07:13.852Z,69.47
2023-01-17T22:09:40.425Z,62.27
2023-01-17T22:12:06.828Z,47.07
2023-01-17T22:14:33.151Z,57.93
2023-01-17T22:16:59.468Z,55.27
2023-01-17T22:19:25.833Z,47.40
2023-01-17T22:21:53.908Z,61.90
2023-01-17T22:24:20.232Z,53.97
2023-01-17T22:26:46.550Z,53.33
2023-01-17T22:29:16.868Z,50.67
2023-01-17T22:31:43.193Z,58.53
2023-01-17T22:34:09.543Z,57.40
2023-01-17T22:36:36.145Z,48.63
2023-01-17T22:39:02.484Z,56.53
2023-01-17T22:41:29.852Z,60.33
2023-01-17T22:43:58.612Z,48.93
2023-01-17T22:46:27.640Z,57.07
2023-01-17T22:48:55.158Z,59.13
2023-01-17T22:51:23.006Z,52.13
2023-01-17T22:53:51.798Z,48.27
2023-01-17T22:56:21.329Z,58.37
2023-01-17T22:58:49.001Z,48.20
2023-01-17T23:01:18.262Z,51.47
2023-01-17T23:03:45.848Z,61.57
2023-01-17T23:06:18.976Z,63.63
2023-01-17T23:08:47.919Z,55.90
2023-01-17T23:11:39.306Z,57.17
2023-01-17T23:14:10.853Z,59.97
2023-01-17T23:16:57.013Z,56.40
2023-01-17T23:19:24.092Z,65.40
2023-01-17T23:22:11.676Z,67.27
2023-01-17T23:24:42.869Z,68.90
2023-01-17T23:27:30.079Z,54.43
2023-01-17T23:29:56.510Z,57.73
2023-01-17T23:32:23.009Z,63.10
2023-01-17T23:34:49.625Z,63.07
2023-01-17T23:37:15.970Z,61.23
2023-01-17T23:39:42.332Z,63.43
2023-01-17T23:42:27.573Z,57.53
2023-01-17T23:44:54.064Z,69.20
2023-01-17T23:47:20.483Z,60.20
2023-01-17T23:49:48.176Z,66.27
2023-01-17T23:52:15.591Z,68.67
2023-01-17T23:54:41.966Z,62.30
2023-01-17T23:57:08.625Z,60.13
2023-01-17T23:59:34.952Z,64.20
